Horizon Kodiak — KGTZ — position and weather

sailwx.info

Track history (hours):
 
Tides and Currents Weather Stations Pressure Air Temp Water Temp Dewpoint Dewpoint Depression Visibility Wind Speed Wind Dir Waves Ship Positions

Horizon Kodiak

Owner: HORIZON LINES LLC, RALEIGH, NC. More information available from US FCC via Universal Licensing System and Coast Guard Vessel Documentation Center.

Last reported at 2015-Mar-27 06:00 UTC. Time now 2015-Mar-27 11:58 UTC.
Position N 50°00' W 128°18'.

Type: Cargo ship. MMSI: 366793000.

Wind from 140 at 24 knots

Barometer 1015.8 mb
Air temperature 11.1 ° C
Visibility: greater than 2.2 NM
Dewpoint 10.2 ° C
Water temperature 10.6 ° C

Date/timePositionNaut miles runAvg speedWind from/ knotsBaromVisibWave heightAir tempDewpointWater temp
2015-Mar-27 06:00N 50°00' W 128°18'5118.7 140 / 241015.8 2.2 11.110.210.6
2015-Mar-27 03:18N 49°31' W 127°14'1520.4
2015-Mar-27 02:33N 49°22' W 126°55'2020.3
2015-Mar-27 01:34N 49°10' W 126°30'2019.8
2015-Mar-27 00:34N 48°58' W 126°06'2020.0
2015-Mar-26 23:34N 48°46' W 125°41'2020.2
2015-Mar-26 22:34N 48°34' W 125°17'1919.0
2015-Mar-26 21:34N 48°31' W 124°49'2019.5
2015-Mar-26 20:34N 48°24' W 124°21'2020.5
2015-Mar-26 19:34N 48°17' W 123°52'1919.0
2015-Mar-26 18:33N 48°11' W 123°25'1515.2
2015-Mar-26 17:33N 48°12' W 123°02'1818.0
2015-Mar-26 16:33N 48°04' W 122°38'1918.8
2015-Mar-26 15:33N 47°47' W 122°26'2019.5
2015-Mar-26 14:33N 47°28' W 122°24'1211.6
2015-Mar-26 13:33N 47°16' W 122°25'0 0.0
2015-Mar-26 12:33N 47°16' W 122°25'0 0.0
2015-Mar-26 11:33N 47°16' W 122°25'0 0.0
2015-Mar-26 10:33N 47°16' W 122°25'0 0.0
2015-Mar-26 09:33N 47°16' W 122°25'0 0.0
2015-Mar-26 08:33N 47°16' W 122°25'0 0.0
2015-Mar-26 07:33N 47°16' W 122°25'0 0.0
2015-Mar-26 06:33N 47°16' W 122°25'0 0.0
2015-Mar-26 05:33N 47°16' W 122°25'0 0.0
2015-Mar-26 04:33N 47°16' W 122°25'0 0.0
2015-Mar-26 03:33N 47°16' W 122°25'0 0.0
2015-Mar-26 02:33N 47°16' W 122°25'0 0.0
2015-Mar-26 01:33N 47°16' W 122°25'0 0.0
2015-Mar-26 00:33N 47°16' W 122°25'0 0.0
2015-Mar-25 23:33N 47°16' W 122°25'5 4.7
2015-Mar-25 22:33N 47°21' W 122°26'1717.3
2015-Mar-25 21:33N 47°38' W 122°28'1818.1
2015-Mar-25 20:33N 47°56' W 122°32'1615.7
2015-Mar-25 19:32N 48°09' W 122°45'1717.6
2015-Mar-25 18:33N 48°12' W 123°11'1514.5
2015-Mar-25 17:33N 48°13' W 123°32'1919.1
2015-Mar-25 16:33N 48°15' W 124°01'2020.2
2015-Mar-25 15:33N 48°23' W 124°28'1919.2
2015-Mar-25 14:33N 48°29' W 124°56'1818.0
2015-Mar-25 13:33N 48°32' W 125°23'1817.8
2015-Mar-25 12:33N 48°38' W 125°48'1818.3
2015-Mar-25 11:33N 48°46' W 126°13'1818.4
2015-Mar-25 10:33N 48°54' W 126°38'1918.2
2015-Mar-25 09:29N 49°03' W 127°05'6217.7
2015-Mar-25 06:00N 49°30' W 128°30'21117.6 150 / 371008.8 2.2 8.9 7.710.6
2015-Mar-24 18:00N 50°48' W 133°36'23219.4 140 / 301008.610.8 2.0 7.8 4.210.0
2015-Mar-24 06:00N 52°00' W 139°30'23419.5 170 / 91009.910.8 7.2 3.8 8.9
2015-Mar-23 18:00N 53°00' W 145°42'22518.7 140 / 131003.5 5.4 0.5 5.6 4.3 7.2
2015-Mar-23 06:00N 53°30' W 151°54'22819.0 050 / 191001.010.8 5.6 4.3 6.7
2015-Mar-22 18:00N 53°48' W 158°18'22318.6 050 / 241002.8 5.4 2.0 5.6 3.0 6.1
2015-Mar-22 06:00N 53°54' W 164°36'121 2.5 090 / 91003.210.8 3.9 1.3 6.1
2015-Mar-20 06:00N 54°12' W 161°12'23419.5 080 / 13997.7 5.4 4.4 3.3 6.1
2015-Mar-19 18:00N 55°48' W 155°00'   090 / 91001.610.8 0.5 3.3 0.7 6.7
Track history (hours):
 
Tides and Currents Weather Stations Pressure Air Temp Water Temp Dewpoint Dewpoint Depression Visibility Wind Speed Wind Dir Waves Ship Positions

Horizon Kodiak

Owner: HORIZON LINES LLC, RALEIGH, NC. More information available from US FCC via Universal Licensing System and Coast Guard Vessel Documentation Center.

Last reported at 2015-Mar-27 06:00 UTC. Time now 2015-Mar-27 11:58 UTC.
Position N 50°00' W 128°18'.

Type: Cargo ship. MMSI: 366793000.

Wind from 140 at 24 knots

Barometer 1015.8 mb
Air temperature 11.1 ° C
Visibility: greater than 2.2 NM
Dewpoint 10.2 ° C
Water temperature 10.6 ° C

Date/timePositionNaut miles runAvg speedWind from/ knotsBaromVisibWave heightAir tempDewpointWater temp
2015-Mar-27 06:00N 50°00' W 128°18'5118.7 140 / 241015.8 2.2 11.110.210.6
2015-Mar-27 03:18N 49°31' W 127°14'1520.4
2015-Mar-27 02:33N 49°22' W 126°55'2020.3
2015-Mar-27 01:34N 49°10' W 126°30'2019.8
2015-Mar-27 00:34N 48°58' W 126°06'2020.0
2015-Mar-26 23:34N 48°46' W 125°41'2020.2
2015-Mar-26 22:34N 48°34' W 125°17'1919.0
2015-Mar-26 21:34N 48°31' W 124°49'2019.5
2015-Mar-26 20:34N 48°24' W 124°21'2020.5
2015-Mar-26 19:34N 48°17' W 123°52'1919.0
2015-Mar-26 18:33N 48°11' W 123°25'1515.2
2015-Mar-26 17:33N 48°12' W 123°02'1818.0
2015-Mar-26 16:33N 48°04' W 122°38'1918.8
2015-Mar-26 15:33N 47°47' W 122°26'2019.5
2015-Mar-26 14:33N 47°28' W 122°24'1211.6
2015-Mar-26 13:33N 47°16' W 122°25'0 0.0
2015-Mar-26 12:33N 47°16' W 122°25'0 0.0
2015-Mar-26 11:33N 47°16' W 122°25'0 0.0
2015-Mar-26 10:33N 47°16' W 122°25'0 0.0
2015-Mar-26 09:33N 47°16' W 122°25'0 0.0
2015-Mar-26 08:33N 47°16' W 122°25'0 0.0
2015-Mar-26 07:33N 47°16' W 122°25'0 0.0
2015-Mar-26 06:33N 47°16' W 122°25'0 0.0
2015-Mar-26 05:33N 47°16' W 122°25'0 0.0
2015-Mar-26 04:33N 47°16' W 122°25'0 0.0
2015-Mar-26 03:33N 47°16' W 122°25'0 0.0
2015-Mar-26 02:33N 47°16' W 122°25'0 0.0
2015-Mar-26 01:33N 47°16' W 122°25'0 0.0
2015-Mar-26 00:33N 47°16' W 122°25'0 0.0
2015-Mar-25 23:33N 47°16' W 122°25'5 4.7
2015-Mar-25 22:33N 47°21' W 122°26'1717.3
2015-Mar-25 21:33N 47°38' W 122°28'1818.1
2015-Mar-25 20:33N 47°56' W 122°32'1615.7
2015-Mar-25 19:32N 48°09' W 122°45'1717.6
2015-Mar-25 18:33N 48°12' W 123°11'1514.5
2015-Mar-25 17:33N 48°13' W 123°32'1919.1
2015-Mar-25 16:33N 48°15' W 124°01'2020.2
2015-Mar-25 15:33N 48°23' W 124°28'1919.2
2015-Mar-25 14:33N 48°29' W 124°56'1818.0
2015-Mar-25 13:33N 48°32' W 125°23'1817.8
2015-Mar-25 12:33N 48°38' W 125°48'1818.3
2015-Mar-25 11:33N 48°46' W 126°13'1818.4
2015-Mar-25 10:33N 48°54' W 126°38'1918.2
2015-Mar-25 09:29N 49°03' W 127°05'6217.7
2015-Mar-25 06:00N 49°30' W 128°30'21117.6 150 / 371008.8 2.2 8.9 7.710.6
2015-Mar-24 18:00N 50°48' W 133°36'23219.4 140 / 301008.610.8 2.0 7.8 4.210.0
2015-Mar-24 06:00N 52°00' W 139°30'23419.5 170 / 91009.910.8 7.2 3.8 8.9
2015-Mar-23 18:00N 53°00' W 145°42'22518.7 140 / 131003.5 5.4 0.5 5.6 4.3 7.2
2015-Mar-23 06:00N 53°30' W 151°54'22819.0 050 / 191001.010.8 5.6 4.3 6.7
2015-Mar-22 18:00N 53°48' W 158°18'22318.6 050 / 241002.8 5.4 2.0 5.6 3.0 6.1
2015-Mar-22 06:00N 53°54' W 164°36'121 2.5 090 / 91003.210.8 3.9 1.3 6.1
2015-Mar-20 06:00N 54°12' W 161°12'23419.5 080 / 13997.7 5.4 4.4 3.3 6.1
2015-Mar-19 18:00N 55°48' W 155°00'   090 / 91001.610.8 0.5 3.3 0.7 6.7

Dump ship's entire track history